createdAt,value
2022-12-17T00:02:21.108Z,-0.89
2022-12-17T00:06:41.461Z,-0.89
2022-12-17T00:11:02.345Z,-0.87
2022-12-17T00:15:25.015Z,-0.90
2022-12-17T00:19:45.828Z,-0.91
2022-12-17T00:24:06.718Z,-0.87
2022-12-17T00:28:28.511Z,-0.90
2022-12-17T00:32:50.938Z,-0.89
2022-12-17T00:37:11.959Z,-0.90
2022-12-17T00:41:37.562Z,-0.91
2022-12-17T00:45:58.039Z,-0.89
2022-12-17T00:50:20.917Z,-0.90
2022-12-17T00:54:41.369Z,-0.90
2022-12-17T00:59:01.533Z,-0.92
2022-12-17T01:03:27.937Z,-0.94
2022-12-17T01:07:58.314Z,-0.96
2022-12-17T01:12:20.339Z,-0.97
2022-12-17T01:16:52.093Z,-0.96
2022-12-17T01:21:14.880Z,-0.98
2022-12-17T01:25:36.923Z,-0.96
2022-12-17T01:29:57.127Z,-0.97
2022-12-17T01:34:17.526Z,-0.97
2022-12-17T01:38:40.833Z,-1.02
2022-12-17T01:43:05.594Z,-1.00
2022-12-17T01:47:27.693Z,-0.99
2022-12-17T01:51:49.633Z,-0.96
2022-12-17T01:56:12.804Z,-1.01
2022-12-17T02:00:37.130Z,-1.03
2022-12-17T02:04:58.532Z,-1.01
2022-12-17T02:09:26.473Z,-1.01
2022-12-17T02:13:51.419Z,-1.00
2022-12-17T02:18:17.878Z,-1.00
2022-12-17T02:22:44.995Z,-0.98
2022-12-17T02:27:10.117Z,-0.89
2022-12-17T02:31:34.340Z,-0.93
2022-12-17T02:36:00.635Z,-0.90
2022-12-17T02:40:21.506Z,-0.91
2022-12-17T02:44:44.685Z,-0.92
2022-12-17T02:49:05.385Z,-0.88
2022-12-17T02:53:26.559Z,-0.85
2022-12-17T02:57:50.864Z,-0.88
2022-12-17T03:02:16.649Z,-0.87
2022-12-17T03:06:37.529Z,-0.82
2022-12-17T03:16:14.139Z,-0.89
2022-12-17T03:20:36.749Z,-0.84
2022-12-17T03:24:57.626Z,-0.85
2022-12-17T03:29:17.948Z,-0.89
2022-12-17T04:15:58.429Z,-0.93
2022-12-17T04:22:11.738Z,-0.93
2022-12-17T04:26:32.072Z,-0.90
2022-12-17T04:30:53.156Z,-0.94
2022-12-17T04:35:10.116Z,-0.92
2022-12-17T04:39:32.120Z,-0.92
2022-12-17T04:43:52.443Z,-0.94
2022-12-17T04:48:19.776Z,-0.96
2022-12-17T04:52:40.260Z,-0.96
2022-12-17T04:57:02.436Z,-0.98
2022-12-17T05:01:22.774Z,-0.94
2022-12-17T05:05:43.034Z,-0.94
2022-12-17T05:10:03.893Z,-0.94
2022-12-17T05:14:25.645Z,-1.03
2022-12-17T05:18:45.981Z,-1.03
2022-12-17T05:23:06.315Z,-1.00
2022-12-17T05:27:27.195Z,-1.01
2022-12-17T05:31:49.243Z,-1.04
2022-12-17T05:36:09.868Z,-1.04
2022-12-17T05:40:30.744Z,-1.03
2022-12-17T05:44:51.036Z,-1.00
2022-12-17T05:49:13.062Z,-1.01
2022-12-17T05:53:33.820Z,-1.09
2022-12-17T05:57:56.566Z,-1.05
2022-12-17T06:02:17.463Z,-1.04
2022-12-17T06:06:39.293Z,-1.02
2022-12-17T06:10:59.528Z,-1.06
2022-12-17T06:15:19.753Z,-1.04
2022-12-17T06:19:42.321Z,-1.09
2022-12-17T06:24:03.922Z,-1.03
2022-12-17T06:28:24.288Z,-1.03
2022-12-17T06:32:45.019Z,-1.06
2022-12-17T06:37:05.375Z,-1.05
2022-12-17T06:41:26.963Z,-1.11
2022-12-17T06:45:47.432Z,-1.06
2022-12-17T06:50:07.742Z,-1.09
2022-12-17T06:54:28.140Z,-1.04
2022-12-17T06:58:50.153Z,-1.07
2022-12-17T07:03:14.971Z,-1.06
2022-12-17T07:07:35.608Z,-1.03
2022-12-17T07:11:56.757Z,-1.04
2022-12-17T07:16:19.303Z,-1.02
2022-12-17T07:20:40.440Z,-1.02
2022-12-17T07:25:02.211Z,-0.97
2022-12-17T07:29:24.519Z,-0.97
2022-12-17T07:33:46.803Z,-0.97
2022-12-17T07:38:07.129Z,-0.95
2022-12-17T07:42:27.635Z,-0.95
2022-12-17T07:46:48.141Z,-0.94
2022-12-17T07:51:10.669Z,-0.90
2022-12-17T07:55:30.918Z,-0.90
2022-12-17T07:59:51.360Z,-0.89
2022-12-17T08:04:23.104Z,-0.86
2022-12-17T08:08:44.927Z,-0.85
2022-12-17T08:13:21.424Z,-0.81
2022-12-17T08:17:41.865Z,-0.73
2022-12-17T08:22:02.635Z,-0.69
2022-12-17T08:26:24.678Z,-0.67
2022-12-17T08:30:45.043Z,-0.64
2022-12-17T08:35:05.496Z,-0.65
2022-12-17T08:39:26.355Z,-0.64
2022-12-17T08:43:49.549Z,-0.59
2022-12-17T08:48:09.854Z,-0.58
2022-12-17T08:52:30.355Z,-0.57
2022-12-17T08:56:50.690Z,-0.52
2022-12-17T09:01:12.375Z,-0.47
2022-12-17T09:05:33.390Z,-0.48
2022-12-17T09:09:53.737Z,-0.46
2022-12-17T09:14:14.302Z,-0.43
2022-12-17T09:18:38.991Z,-0.38
2022-12-17T09:22:59.291Z,-0.39
2022-12-17T09:27:19.966Z,-0.36
2022-12-17T09:31:40.164Z,-0.37
2022-12-17T09:36:01.876Z,-0.38
2022-12-17T09:40:23.395Z,-0.37
2022-12-17T09:44:50.900Z,-0.39
2022-12-17T09:49:31.259Z,-0.39
2022-12-17T09:53:56.615Z,-0.32
2022-12-17T09:58:17.544Z,-0.34
2022-12-17T10:02:41.027Z,-0.38
2022-12-17T10:07:01.788Z,-0.37
2022-12-17T10:11:37.407Z,-0.30
2022-12-17T10:16:00.073Z,-0.32
2022-12-17T10:20:21.832Z,-0.30
2022-12-17T10:24:42.759Z,-0.33
2022-12-17T10:29:04.675Z,-0.24
2022-12-17T10:33:26.159Z,-0.29
2022-12-17T10:37:46.883Z,-0.33
2022-12-17T10:42:07.262Z,-0.40
2022-12-17T10:46:29.485Z,-0.24
2022-12-17T10:50:51.707Z,-0.28
2022-12-17T10:55:21.328Z,-0.28
2022-12-17T10:59:50.503Z,-0.31
2022-12-17T11:04:13.910Z,-0.26
2022-12-17T11:08:35.816Z,-0.25
2022-12-17T11:13:01.086Z,-0.24
2022-12-17T11:17:25.559Z,-0.25
2022-12-17T11:21:52.224Z,-0.18
2022-12-17T11:26:18.737Z,-0.12
2022-12-17T11:30:39.869Z,-0.12
2022-12-17T11:35:15.274Z,-0.02
2022-12-17T11:44:07.795Z,0.05
2022-12-17T11:48:33.982Z,0.09
2022-12-17T11:53:04.479Z,0.10
2022-12-17T11:57:37.189Z,0.10
2022-12-17T12:02:06.084Z,0.08
2022-12-17T12:06:36.318Z,0.12
2022-12-17T12:11:07.294Z,0.13
2022-12-17T12:15:42.404Z,0.13
2022-12-17T12:20:08.753Z,0.19
2022-12-17T12:24:42.187Z,0.25
2022-12-17T12:29:11.677Z,0.27
2022-12-17T12:33:46.349Z,0.29
2022-12-17T12:38:07.143Z,0.24
2022-12-17T12:42:40.022Z,0.27
2022-12-17T12:47:05.278Z,0.29
2022-12-17T12:51:34.206Z,0.28
2022-12-17T12:55:57.365Z,0.31
2022-12-17T13:00:17.735Z,0.30
2022-12-17T13:04:50.068Z,0.31
2022-12-17T13:09:06.165Z,0.32
2022-12-17T13:13:14.502Z,0.33
2022-12-17T13:17:30.452Z,0.36
2022-12-17T13:21:33.493Z,0.30
2022-12-17T13:25:38.493Z,0.33
2022-12-17T13:29:41.921Z,0.34
2022-12-17T13:33:52.596Z,0.32
2022-12-17T13:38:03.822Z,0.29
2022-12-17T13:42:19.574Z,0.35
2022-12-17T13:46:24.739Z,0.32
2022-12-17T13:50:35.255Z,0.32
2022-12-17T13:54:38.553Z,0.37
2022-12-17T13:58:44.266Z,0.32
2022-12-17T14:02:48.943Z,0.30
2022-12-17T14:06:53.971Z,0.29
2022-12-17T14:11:17.981Z,0.28
2022-12-17T14:15:26.933Z,0.28
2022-12-17T14:19:33.137Z,0.26
2022-12-17T14:23:36.808Z,0.23
2022-12-17T14:27:40.534Z,0.21
2022-12-17T14:31:53.824Z,0.22
2022-12-17T14:35:57.815Z,0.21
2022-12-17T14:40:05.379Z,0.17
2022-12-17T14:44:09.070Z,0.16
2022-12-17T14:48:17.249Z,0.15
2022-12-17T14:52:28.275Z,0.13
2022-12-17T14:56:32.071Z,0.12
2022-12-17T15:00:36.249Z,0.13
2022-12-17T15:04:41.227Z,0.08
2022-12-17T15:08:47.365Z,0.07
2022-12-17T15:12:51.559Z,0.07
2022-12-17T15:16:55.918Z,0.08
2022-12-17T15:21:00.933Z,0.04
2022-12-17T15:25:03.988Z,-0.00
2022-12-17T15:29:07.055Z,-0.03
2022-12-17T15:33:10.951Z,-0.01
2022-12-17T15:37:18.803Z,-0.09
2022-12-17T15:41:42.806Z,-0.09
2022-12-17T15:45:48.368Z,-0.15
2022-12-17T15:49:51.444Z,-0.16
2022-12-17T15:53:55.866Z,-0.21
2022-12-17T15:57:59.607Z,-0.20
2022-12-17T16:02:03.221Z,-0.23
2022-12-17T16:06:06.978Z,-0.22
2022-12-17T16:10:12.765Z,-0.29
2022-12-17T16:14:16.104Z,-0.33
2022-12-17T16:18:19.126Z,-0.35
2022-12-17T16:22:22.691Z,-0.37
2022-12-17T16:26:27.097Z,-0.38
2022-12-17T16:30:30.128Z,-0.44
2022-12-17T16:34:33.217Z,-0.42
2022-12-17T16:38:37.160Z,-0.44
2022-12-17T16:42:41.970Z,-0.46
2022-12-17T16:46:46.415Z,-0.51
2022-12-17T16:50:50.800Z,-0.50
2022-12-17T16:54:53.841Z,-0.54
2022-12-17T16:58:58.600Z,-0.57
2022-12-17T17:03:01.718Z,-0.59
2022-12-17T17:07:05.213Z,-0.61
2022-12-17T17:11:09.899Z,-0.63
2022-12-17T17:15:14.429Z,-0.63
2022-12-17T17:19:18.368Z,-0.62
2022-12-17T17:23:21.460Z,-0.71
2022-12-17T17:27:24.506Z,-0.74
2022-12-17T17:32:01.188Z,-0.79
2022-12-17T17:35:52.170Z,-0.80
2022-12-17T17:39:55.217Z,-0.84
2022-12-17T17:44:00.314Z,-0.90
2022-12-17T17:48:04.925Z,-0.93
2022-12-17T17:52:09.985Z,-0.94
2022-12-17T17:56:16.180Z,-0.95
2022-12-17T18:00:19.421Z,-0.94
2022-12-17T18:04:24.621Z,-0.92
2022-12-17T18:08:30.530Z,-0.96
2022-12-17T18:12:51.056Z,-0.98
2022-12-17T18:16:54.074Z,-0.97
2022-12-17T18:21:05.635Z,-0.98
2022-12-17T18:25:09.374Z,-1.00
2022-12-17T18:29:15.432Z,-1.03
2022-12-17T18:33:19.430Z,-1.03
2022-12-17T18:37:23.839Z,-1.06
2022-12-17T18:41:44.669Z,-1.05
2022-12-17T18:45:47.955Z,-1.06
2022-12-17T18:49:51.455Z,-1.06
2022-12-17T18:53:58.173Z,-1.05
2022-12-17T18:58:02.036Z,-1.03
2022-12-17T19:02:05.219Z,-1.04
2022-12-17T19:06:09.349Z,-1.08
2022-12-17T19:10:13.800Z,-1.10
2022-12-17T19:14:17.401Z,-1.12
2022-12-17T19:18:20.516Z,-1.10
2022-12-17T19:22:23.543Z,-1.06
2022-12-17T19:26:29.291Z,-1.11
2022-12-17T19:30:32.373Z,-1.05
2022-12-17T19:34:35.540Z,-1.02
2022-12-17T19:38:39.588Z,-0.88
2022-12-17T19:42:44.526Z,-0.81
2022-12-17T19:46:47.796Z,-0.85
2022-12-17T19:50:57.127Z,-0.90
2022-12-17T19:55:00.161Z,-0.89
2022-12-17T19:59:07.377Z,-0.92
2022-12-17T20:03:10.688Z,-0.92
2022-12-17T20:07:14.114Z,-0.87
2022-12-17T20:11:36.407Z,-0.89
2022-12-17T20:15:40.840Z,-0.93
2022-12-17T20:19:43.892Z,-0.95
2022-12-17T20:23:47.516Z,-0.96
2022-12-17T20:27:50.711Z,-0.98
2022-12-17T20:31:56.377Z,-0.99
2022-12-17T20:36:04.928Z,-0.98
2022-12-17T20:40:09.582Z,-1.00
2022-12-17T20:44:15.022Z,-0.99
2022-12-17T20:48:19.574Z,-0.97
2022-12-17T20:52:22.706Z,-0.95
2022-12-17T20:56:28.290Z,-0.95
2022-12-17T21:00:31.312Z,-0.96
2022-12-17T21:04:35.799Z,-0.96
2022-12-17T21:08:42.364Z,-0.95
2022-12-17T21:13:15.333Z,-0.95
2022-12-17T21:17:18.588Z,-0.98
2022-12-17T21:21:25.734Z,-0.97
2022-12-17T21:25:28.707Z,-0.94
2022-12-17T21:29:31.877Z,-0.90
2022-12-17T21:33:35.084Z,-0.83
2022-12-17T21:37:39.853Z,-0.76
2022-12-17T21:42:07.045Z,-0.80
2022-12-17T21:46:11.947Z,-0.83
2022-12-17T21:50:15.180Z,-0.84
2022-12-17T21:54:20.275Z,-0.82
2022-12-17T21:58:23.380Z,-0.82
2022-12-17T22:02:26.718Z,-0.77
2022-12-17T22:06:33.129Z,-0.75
2022-12-17T22:10:52.618Z,-0.75
2022-12-17T22:14:56.269Z,-0.78
2022-12-17T22:19:01.215Z,-0.75
2022-12-17T22:23:04.878Z,-0.73
2022-12-17T22:27:09.953Z,-0.82
2022-12-17T22:31:31.538Z,-0.85
2022-12-17T22:38:19.293Z,-0.90
2022-12-17T22:42:51.907Z,-1.00
2022-12-17T22:44:44.737Z,-1.08
2022-12-17T22:48:50.396Z,-1.11
2022-12-17T22:52:53.489Z,-1.16
2022-12-17T22:57:32.476Z,-1.19
